Time;durP1;ratioP1;P1;durP2;ratioP2;P2;SDS_P1;SDS_P2;PMS_P1;PMS_P2;Temp;Humidity;BMP_temperature;BMP_pressure;BME280_temperature;BME280_humidity;BME280_pressure;Samples;Min_cycle;Max_cycle;Signal;HPM_P1;HPM_P2
2022/06/22 00:02:18;;;;;;;9.23;4.33;;;;;;;14.15;79.26;101450.06;5041709;28;20336;-73
2022/06/22 00:04:53;;;;;;;5.90;4.30;;;;;;;14.08;80.05;101445.69;5040111;28;20203;-73
2022/06/22 00:07:31;;;;;;;6.93;4.40;;;;;;;14.00;79.83;101442.97;5041360;28;20193;-73
2022/06/22 00:10:15;;;;;;;5.40;3.90;;;;;;;13.94;80.33;101442.88;5037445;28;20173;-73
2022/06/22 00:12:41;;;;;;;6.53;4.77;;;;;;;13.89;80.60;101456.50;5034885;28;20344;-73
2022/06/22 00:15:23;;;;;;;5.93;4.10;;;;;;;13.80;80.33;101462.38;5033655;28;20646;-73
2022/06/22 00:17:48;;;;;;;5.23;4.17;;;;;;;13.73;80.36;101462.28;5034614;28;20273;-73
2022/06/22 00:20:23;;;;;;;5.10;4.13;;;;;;;13.76;80.46;101460.59;5034172;28;20614;-73
2022/06/22 00:23:00;;;;;;;5.83;4.40;;;;;;;13.76;80.74;101465.75;5033558;28;20260;-73
2022/06/22 00:25:31;;;;;;;5.80;3.80;;;;;;;13.69;81.49;101469.09;5019702;28;20186;-73
2022/06/22 00:28:50;;;;;;;5.27;3.90;;;;;;;13.63;81.79;101463.81;5041096;28;20194;-73
2022/06/22 00:31:28;;;;;;;6.93;4.40;;;;;;;13.56;81.75;101466.25;4944237;28;20212;-73
2022/06/22 00:34:09;;;;;;;7.17;4.37;;;;;;;13.52;82.32;101461.91;5041369;28;20709;-73
2022/06/22 00:36:59;;;;;;;6.07;4.20;;;;;;;13.49;82.06;101461.88;5040601;28;20255;-74
2022/06/22 00:39:30;;;;;;;6.40;4.27;;;;;;;13.46;81.63;101452.38;5034919;28;20225;-73
2022/06/22 00:42:14;;;;;;;5.27;3.87;;;;;;;13.47;81.66;101456.69;5034505;28;20206;-73
2022/06/22 00:44:46;;;;;;;4.60;4.13;;;;;;;13.40;81.77;101453.97;5014349;28;20207;-73
2022/06/22 00:47:41;;;;;;;4.60;4.10;;;;;;;13.35;81.93;101463.31;5031851;28;20182;-73
2022/06/22 00:50:09;;;;;;;6.20;3.93;;;;;;;13.32;82.60;101453.84;5031930;28;20292;-73
2022/06/22 00:52:42;;;;;;;5.03;4.10;;;;;;;13.25;82.23;101454.56;5031958;28;20634;-74
2022/06/22 00:55:27;;;;;;;7.33;4.20;;;;;;;13.22;82.79;101456.22;5031939;28;20174;-73
2022/06/22 00:58:14;;;;;;;5.93;4.20;;;;;;;13.19;82.74;101469.00;5031917;28;20162;-73
2022/06/22 01:00:43;;;;;;;5.17;4.10;;;;;;;13.10;83.36;101461.13;5017427;28;20199;-73
2022/06/22 01:03:22;;;;;;;4.50;3.67;;;;;;;13.05;83.24;101455.03;5011857;28;20237;-73
2022/06/22 01:06:06;;;;;;;6.03;4.10;;;;;;;13.01;83.31;101453.22;5005670;28;20194;-73
2022/06/22 01:08:42;;;;;;;5.30;4.53;;;;;;;12.97;83.60;101448.88;5031356;28;20201;-73
2022/06/22 01:14:43;;;;;;;6.63;4.60;;;;;;;12.84;83.36;101442.59;4998361;28;20198;-73
2022/06/22 01:17:24;;;;;;;5.23;4.20;;;;;;;12.83;83.34;101443.44;5029893;28;20222;-73
2022/06/22 01:20:01;;;;;;;6.40;4.10;;;;;;;12.77;83.51;101446.72;5028032;28;20206;-73
2022/06/22 01:22:30;;;;;;;7.70;4.43;;;;;;;12.65;84.35;101443.06;5030932;28;20309;-73
2022/06/22 01:25:29;;;;;;;5.53;4.20;;;;;;;12.63;84.18;101444.75;5030965;28;20191;-73
2022/06/22 01:27:55;;;;;;;5.00;4.20;;;;;;;12.59;83.65;101448.94;5030750;28;20212;-74
2022/06/22 01:30:40;;;;;;;4.77;4.27;;;;;;;12.56;83.53;101450.56;5031013;28;20194;-73
2022/06/22 01:33:08;;;;;;;4.93;4.33;;;;;;;12.47;83.94;101445.25;5030820;28;20232;-73
2022/06/22 01:35:37;;;;;;;4.27;3.87;;;;;;;12.43;83.42;101451.13;5029740;28;20248;-73
2022/06/22 01:38:26;;;;;;;6.73;4.10;;;;;;;12.40;83.80;101444.25;5030223;28;20198;-73
2022/06/22 01:41:14;;;;;;;6.83;4.60;;;;;;;12.30;84.18;101447.44;5030746;28;20198;-73
2022/06/22 01:43:46;;;;;;;5.30;4.27;;;;;;;12.33;84.02;101441.50;5030482;28;20190;-74
2022/06/22 01:46:22;;;;;;;5.60;4.33;;;;;;;12.23;84.93;101444.72;5030796;28;20240;-73
2022/06/22 01:49:20;;;;;;;5.40;3.97;;;;;;;12.22;84.34;101441.25;5030006;28;20850;-73
2022/06/22 01:51:51;;;;;;;815.13;85.73;;;;;;;12.19;84.15;101438.66;5003051;28;20226;-73
2022/06/22 01:54:48;;;;;;;48.83;9.40;;;;;;;12.11;84.11;101439.28;5030214;28;20641;-73
2022/06/22 01:57:25;;;;;;;4.73;3.40;;;;;;;12.08;84.29;101432.38;5017834;28;20252;-73
2022/06/22 01:59:53;;;;;;;6.57;4.63;;;;;;;11.99;84.24;101441.59;5029868;28;20309;-73
2022/06/22 02:02:46;;;;;;;6.13;4.40;;;;;;;11.95;84.26;101447.50;5030468;28;20210;-73
2022/06/22 02:05:20;;;;;;;6.97;4.20;;;;;;;11.80;84.88;101444.56;5029874;28;20199;-73
2022/06/22 02:07:58;;;;;;;5.83;4.40;;;;;;;11.72;85.42;101453.78;5030203;28;20178;-73
2022/06/22 02:10:46;;;;;;;8.13;5.40;;;;;;;11.81;85.43;101447.19;5030077;28;20190;-73
2022/06/22 02:13:32;;;;;;;5.77;5.00;;;;;;;11.77;85.55;101447.94;5029404;28;20191;-73
2022/06/22 02:16:00;;;;;;;7.67;5.27;;;;;;;11.75;85.75;101451.28;5030368;28;20269;-73
2022/06/22 02:18:32;;;;;;;8.43;5.40;;;;;;;11.77;85.26;101444.47;5029798;28;20349;-73
2022/06/22 02:21:02;;;;;;;6.73;5.40;;;;;;;11.72;85.99;101449.53;5030294;28;20185;-73
2022/06/22 02:23:34;;;;;;;7.67;5.43;;;;;;;11.72;86.98;101452.09;5030067;28;20197;-73
2022/06/22 02:26:35;;;;;;;11.27;7.30;;;;;;;11.75;87.92;101449.56;5012398;28;20565;-73
2022/06/22 02:29:01;;;;;;;8.40;6.50;;;;;;;11.79;88.58;101451.38;4932062;29;20228;-73
2022/06/22 02:31:27;;;;;;;10.27;6.97;;;;;;;11.74;89.17;101450.41;4994198;28;20230;-73
2022/06/22 02:33:55;;;;;;;8.57;7.00;;;;;;;11.65;89.02;101436.47;5010646;28;20202;-73
2022/06/22 02:36:24;;;;;;;8.17;6.47;;;;;;;11.67;88.79;101435.72;5030069;28;20195;-72
2022/06/22 02:38:55;;;;;;;8.53;5.87;;;;;;;11.65;88.94;101437.34;5029511;28;20993;-74
2022/06/22 02:44:37;;;;;;;8.57;5.50;;;;;;;11.57;88.33;101438.81;5029706;28;20220;-73
2022/06/22 02:47:20;;;;;;;8.57;5.93;;;;;;;11.51;87.28;101433.56;5029399;28;20189;-73
2022/06/22 02:50:14;;;;;;;447.03;46.10;;;;;;;11.50;87.44;101428.38;5029555;28;20186;-73
2022/06/22 02:52:44;;;;;;;7.33;5.37;;;;;;;11.44;87.61;101431.69;4995055;28;20562;-73
2022/06/22 02:55:13;;;;;;;7.73;5.80;;;;;;;11.41;87.50;101428.16;5029683;28;20174;-73
2022/06/22 02:57:51;;;;;;;6.03;5.10;;;;;;;11.41;86.69;101420.44;5029006;28;20236;-73
2022/06/22 03:00:23;;;;;;;6.57;5.27;;;;;;;11.37;86.51;101421.19;5029106;28;20204;-73
2022/06/22 03:02:59;;;;;;;8.47;5.30;;;;;;;11.35;86.69;101423.75;5028923;28;20232;-73
2022/06/22 03:05:26;;;;;;;6.20;5.57;;;;;;;11.29;87.10;101417.59;5029560;28;20297;-73
2022/06/22 03:07:54;;;;;;;5.03;3.30;;;;;;;11.25;86.91;101424.31;5028849;28;20200;-74
2022/06/22 03:10:25;;;;;;;7.50;3.43;;;;;;;11.27;86.99;101419.25;5029339;28;20190;-73
2022/06/22 03:12:54;;;;;;;8.60;3.63;;;;;;;11.24;87.03;101417.47;5027742;28;20210;-74
2022/06/22 03:15:23;;;;;;;7.07;4.83;;;;;;;11.20;86.77;101419.94;5029353;28;20225;-74
2022/06/22 03:17:49;;;;;;;4.47;3.30;;;;;;;11.17;86.37;101417.28;5011177;28;20714;-74
2022/06/22 03:20:19;;;;;;;4.57;3.57;;;;;;;11.17;86.50;101420.72;5028746;28;20211;-74
2022/06/22 03:22:50;;;;;;;2.77;2.23;;;;;;;11.11;86.64;101417.97;5029162;28;20218;-73
2022/06/22 03:25:22;;;;;;;5.20;3.80;;;;;;;11.14;86.54;101412.94;5028855;28;20198;-73
2022/06/22 03:27:55;;;;;;;5.00;3.50;;;;;;;11.15;86.45;101411.25;5029119;28;20179;-73
2022/06/22 03:30:25;;;;;;;4.93;3.63;;;;;;;11.15;86.50;101421.50;5028240;28;20644;-73
2022/06/22 03:33:03;;;;;;;6.07;3.07;;;;;;;11.19;86.21;101418.16;5029071;28;20271;-73
2022/06/22 03:35:47;;;;;;;3.47;2.87;;;;;;;11.18;88.12;101417.31;5028561;28;20185;-73
2022/06/22 03:38:20;;;;;;;5.67;2.70;;;;;;;11.27;88.34;101401.28;5029392;28;20209;-74
2022/06/22 03:41:03;;;;;;;3.67;2.80;;;;;;;11.25;89.29;101411.50;5028317;28;20183;-73
2022/06/22 03:43:38;;;;;;;3.90;2.57;;;;;;;11.25;89.55;101408.94;5020498;28;20269;-74
2022/06/22 03:46:13;;;;;;;4.17;3.00;;;;;;;11.32;89.10;101407.41;5028992;28;20205;-73
2022/06/22 03:49:10;;;;;;;6.50;2.90;;;;;;;11.31;89.64;101401.44;5009492;28;20179;-73
2022/06/22 03:52:08;;;;;;;4.23;2.40;;;;;;;11.34;89.30;101396.34;4983754;28;20226;-73
2022/06/22 03:54:41;;;;;;;4.03;2.73;;;;;;;11.33;89.52;101397.19;4982576;28;20199;-73
2022/06/22 03:57:11;;;;;;;5.87;2.53;;;;;;;11.36;89.70;101398.97;5009050;28;20762;-73
2022/06/22 03:59:40;;;;;;;4.07;2.80;;;;;;;11.43;90.82;101411.97;5021091;28;20217;-74
2022/06/22 04:02:05;;;;;;;5.17;4.37;;;;;;;11.53;91.06;101421.63;5032832;28;20221;-74
2022/06/22 04:04:32;;;;;;;7.23;4.60;;;;;;;11.57;91.25;101425.16;5032121;28;20182;-74
2022/06/22 04:06:58;;;;;;;6.20;4.47;;;;;;;11.61;91.16;101425.28;5032944;28;20186;-73
2022/06/22 04:09:26;;;;;;;4.97;3.03;;;;;;;11.66;91.09;101422.84;5031961;28;20175;-73
2022/06/22 04:11:58;;;;;;;5.00;3.87;;;;;;;11.71;91.11;101416.13;5032708;28;20579;-74
2022/06/22 04:14:31;;;;;;;7.37;3.23;;;;;;;11.76;91.08;101417.09;5032259;28;20183;-74
2022/06/22 04:17:05;;;;;;;5.70;3.23;;;;;;;11.80;90.61;101416.34;5032832;28;20182;-74
2022/06/22 04:20:05;;;;;;;5.83;3.47;;;;;;;11.85;90.57;101428.44;5031959;28;20293;-73
2022/06/22 04:22:34;;;;;;;5.10;3.40;;;;;;;11.92;90.12;101426.88;5032563;28;20566;-73
2022/06/22 04:25:10;;;;;;;4.20;3.70;;;;;;;11.97;90.14;101422.72;5032187;28;20186;-73
2022/06/22 04:27:41;;;;;;;5.30;3.23;;;;;;;12.07;90.23;101424.69;5032656;28;20182;-73
2022/06/22 04:30:16;;;;;;;5.70;3.80;;;;;;;12.14;90.30;101427.41;5032298;28;20221;-74
2022/06/22 04:33:00;;;;;;;7.20;3.23;;;;;;;12.22;90.00;101432.72;5032071;28;20213;-73
2022/06/22 04:35:28;;;;;;;4.27;3.13;;;;;;;12.30;89.59;101439.75;5029715;28;20640;-74
2022/06/22 04:37:59;;;;;;;6.57;3.60;;;;;;;12.38;89.44;101442.47;5031986;28;20563;-74
2022/06/22 04:40:41;;;;;;;6.17;3.97;;;;;;;12.44;89.28;101440.06;5032065;28;20527;-73
2022/06/22 04:43:09;;;;;;;6.33;4.07;;;;;;;12.53;89.20;101435.13;5031832;28;20309;-73
2022/06/22 04:45:43;;;;;;;41.40;8.67;;;;;;;12.62;89.43;101440.41;5032185;28;20182;-74
2022/06/22 04:48:19;;;;;;;11.27;8.57;;;;;;;12.72;89.16;101450.91;5031842;28;20185;-74
2022/06/22 04:50:47;;;;;;;12.27;8.47;;;;;;;12.79;89.33;101450.22;5032223;28;20263;-73
2022/06/22 04:53:34;;;;;;;12.87;8.27;;;;;;;12.91;88.95;101445.31;5031527;28;20194;-73
2022/06/22 04:56:06;;;;;;;14.97;9.10;;;;;;;13.03;89.13;101452.41;5014809;28;20560;-74
2022/06/22 04:58:53;;;;;;;11.13;7.90;;;;;;;13.18;88.49;101447.59;5031556;28;20194;-74
2022/06/22 05:01:39;;;;;;;11.27;7.60;;;;;;;13.36;87.71;101436.75;5031890;28;20199;-74
2022/06/22 05:04:11;;;;;;;9.77;8.20;;;;;;;13.46;88.29;101447.25;5031378;28;20710;-74
2022/06/22 05:06:49;;;;;;;12.80;7.80;;;;;;;13.58;87.00;101452.56;5031941;28;20539;-74
2022/06/22 05:09:26;;;;;;;12.63;8.00;;;;;;;13.72;87.36;101451.09;5031654;28;20167;-73
2022/06/22 05:11:52;;;;;;;11.00;8.33;;;;;;;13.84;86.45;101453.00;5031378;28;20268;-74
2022/06/22 05:14:27;;;;;;;12.17;7.80;;;;;;;13.93;86.55;101448.88;5031292;28;20194;-74
2022/06/22 05:16:58;;;;;;;10.33;8.03;;;;;;;14.12;86.66;101448.31;5031141;28;20193;-74
2022/06/22 05:19:31;;;;;;;11.03;8.20;;;;;;;14.27;86.90;101458.00;5031254;28;20217;-74
2022/06/22 05:21:57;;;;;;;10.47;8.60;;;;;;;14.37;86.38;101468.44;5031100;28;20198;-74
2022/06/22 05:24:30;;;;;;;24.17;13.97;;;;;;;14.49;86.26;101481.50;5031509;28;20186;-74
2022/06/22 05:26:58;;;;;;;5.60;5.07;;;;;;;14.57;84.84;101474.75;5031102;28;20187;-74
2022/06/22 05:29:33;;;;;;;10.33;7.77;;;;;;;14.71;84.09;101473.22;5031227;28;20206;-74
2022/06/22 05:32:03;;;;;;;10.13;7.20;;;;;;;14.88;85.32;101468.28;5030700;28;20222;-74
2022/06/22 05:34:33;;;;;;;8.73;7.47;;;;;;;15.02;83.98;101457.28;5031178;28;20179;-74
2022/06/22 05:37:06;;;;;;;10.83;7.03;;;;;;;15.14;83.84;101462.56;5031161;28;20263;-73
2022/06/22 05:39:36;;;;;;;7.97;6.40;;;;;;;15.26;82.62;101456.66;5030459;28;20202;-74
2022/06/22 05:42:03;;;;;;;12.37;6.50;;;;;;;15.37;82.33;101455.94;5031085;28;20210;-74
2022/06/22 05:44:28;;;;;;;9.57;6.23;;;;;;;15.51;82.26;101446.63;5030564;28;20189;-75
2022/06/22 05:46:57;;;;;;;8.17;5.60;;;;;;;15.68;80.97;101436.44;5031011;28;20213;-73
2022/06/22 05:49:29;;;;;;;7.67;4.83;;;;;;;15.74;78.78;101432.19;5030340;28;20186;-74
2022/06/22 05:52:09;;;;;;;7.57;4.70;;;;;;;15.89;78.05;101426.28;5031038;28;20202;-73
2022/06/22 05:54:54;;;;;;;5.93;4.63;;;;;;;16.07;77.18;101413.50;5030492;28;20178;-74
2022/06/22 05:57:39;;;;;;;172.40;41.53;;;;;;;16.23;76.65;101421.34;5030867;28;20186;-73
2022/06/22 06:00:13;;;;;;;1.80;1.57;;;;;;;16.35;75.23;101413.63;5029625;28;20347;-73
2022/06/22 06:02:57;;;;;;;3.73;2.17;;;;;;;16.56;74.90;101418.06;5010929;28;20261;-73
2022/06/22 06:05:29;;;;;;;3.17;2.40;;;;;;;16.61;73.48;101412.06;5019761;28;20198;-75
2022/06/22 06:08:04;;;;;;;4.03;2.70;;;;;;;16.83;73.70;101415.59;5013107;28;20650;-73
2022/06/22 06:10:37;;;;;;;5.17;2.63;;;;;;;16.99;71.81;101413.06;5030451;28;20543;-72
2022/06/22 06:13:23;;;;;;;4.53;2.40;;;;;;;17.03;70.94;101411.31;5030140;28;20285;-74
2022/06/22 06:15:53;;;;;;;2.03;1.70;;;;;;;17.08;70.46;101410.50;5013370;28;20217;-73
2022/06/22 06:18:25;;;;;;;2.37;1.90;;;;;;;17.26;69.80;101410.53;5030141;28;20244;-74
2022/06/22 06:20:59;;;;;;;36.73;4.60;;;;;;;17.42;69.73;101411.44;5030319;28;20174;-73
2022/06/22 06:23:35;;;;;;;10.37;5.43;;;;;;;17.59;69.89;101407.13;5029468;28;20189;-74
2022/06/22 06:29:14;;;;;;;4.60;2.60;;;;;;;17.87;69.12;101414.88;5029857;28;20178;-74
2022/06/22 06:31:55;;;;;;;7.27;3.23;;;;;;;18.07;68.73;101407.94;5029948;28;20297;-75
2022/06/22 06:34:25;;;;;;;5.20;2.43;;;;;;;18.07;68.11;101409.66;5029667;28;20236;-73
2022/06/22 06:37:10;;;;;;;3.37;2.10;;;;;;;18.31;67.10;101409.59;5030493;28;20190;-74
2022/06/22 06:39:41;;;;;;;5.17;3.10;;;;;;;18.36;67.02;101410.47;5029353;28;20248;-74
2022/06/22 06:42:43;;;;;;;6.33;3.47;;;;;;;18.65;65.76;101408.66;5029303;28;20217;-73
2022/06/22 06:45:15;;;;;;;6.90;3.60;;;;;;;18.68;64.38;101409.50;5013576;28;20751;-74
2022/06/22 06:47:48;;;;;;;6.13;3.20;;;;;;;18.89;64.55;101404.19;5022887;28;20609;-74
2022/06/22 06:50:35;;;;;;;5.43;3.37;;;;;;;19.02;64.59;101403.25;5028564;28;20233;-74
2022/06/22 06:53:23;;;;;;;6.60;3.23;;;;;;;19.12;62.21;101401.47;5029255;28;20232;-73
2022/06/22 06:56:15;;;;;;;6.73;3.53;;;;;;;19.25;61.85;101404.00;4995722;28;20289;-73
2022/06/22 06:58:52;;;;;;;7.73;3.17;;;;;;;19.40;61.61;101409.06;5029420;28;20210;-73
2022/06/22 07:01:21;;;;;;;5.03;3.20;;;;;;;19.46;60.10;101408.19;5034357;28;20573;-73
2022/06/22 07:03:49;;;;;;;7.10;3.30;;;;;;;19.54;59.63;101419.38;5032578;28;20193;-73
2022/06/22 07:06:15;;;;;;;5.60;3.10;;;;;;;19.69;59.87;101416.66;5037500;28;20178;-72
2022/06/22 07:09:04;;;;;;;7.17;3.50;;;;;;;19.90;58.47;101426.88;5048620;28;20196;-73
2022/06/22 07:11:52;;;;;;;6.10;2.77;;;;;;;20.04;57.94;101441.44;5036284;28;20264;-74
2022/06/22 07:14:38;;;;;;;4.57;3.20;;;;;;;19.87;57.58;101437.28;5028722;28;20174;-73
2022/06/22 07:17:11;;;;;;;7.50;3.53;;;;;;;20.04;59.36;101448.41;5029250;28;20225;-73
2022/06/22 07:19:45;;;;;;;5.50;2.80;;;;;;;20.20;57.81;101450.00;5035844;28;20226;-73
2022/06/22 07:22:20;;;;;;;7.00;2.90;;;;;;;20.19;57.52;101450.88;5035919;28;20216;-74
2022/06/22 07:25:12;;;;;;;6.67;2.90;;;;;;;20.49;56.28;101451.41;5012211;28;20722;-74
2022/06/22 07:27:49;;;;;;;4.17;2.77;;;;;;;20.59;54.00;101445.22;5029465;28;20183;-74
2022/06/22 07:30:47;;;;;;;4.33;3.07;;;;;;;20.14;55.19;101456.16;5027395;28;20277;-76
2022/06/22 07:33:24;;;;;;;6.80;3.33;;;;;;;20.49;55.03;101445.38;5026583;28;20218;-74
2022/06/22 07:36:05;;;;;;;3.47;2.77;;;;;;;20.38;54.76;101447.22;5032906;28;20865;-74
2022/06/22 07:38:58;;;;;;;4.47;2.60;;;;;;;20.76;54.53;101445.00;5033243;28;20210;-73
2022/06/22 07:41:25;;;;;;;6.60;3.07;;;;;;;21.03;53.13;101442.09;5033144;28;20213;-73
2022/06/22 07:43:58;;;;;;;5.53;3.57;;;;;;;20.67;53.79;101434.72;5032733;28;20193;-75
2022/06/22 07:46:45;;;;;;;5.73;2.70;;;;;;;20.87;53.00;101432.75;5032813;28;20186;-75
2022/06/22 07:49:36;;;;;;;4.77;2.80;;;;;;;20.87;54.13;101430.13;5014726;28;20198;-75
2022/06/22 07:52:07;;;;;;;6.73;3.17;;;;;;;21.18;53.04;101423.63;5034584;28;20205;-75
2022/06/22 07:54:50;;;;;;;5.27;2.60;;;;;;;21.42;51.93;101423.28;5044978;28;20175;-74
2022/06/22 07:57:34;;;;;;;6.23;2.87;;;;;;;21.59;52.07;101426.47;5032977;28;20183;-74
2022/06/22 08:00:09;;;;;;;5.80;2.93;;;;;;;21.84;52.54;101413.03;5031874;28;20222;-74
2022/06/22 08:03:00;;;;;;;6.13;3.40;;;;;;;21.90;53.35;101418.16;5013141;28;20210;-76
2022/06/22 08:05:31;;;;;;;5.77;3.30;;;;;;;22.04;52.35;101413.56;5032193;28;20755;-74
2022/06/22 08:08:01;;;;;;;5.70;2.93;;;;;;;22.32;52.66;101419.09;5032693;28;20565;-74
2022/06/22 08:10:36;;;;;;;9.57;3.37;;;;;;;22.53;52.89;101413.50;5030797;28;20187;-74
2022/06/22 08:13:16;;;;;;;12.80;3.37;;;;;;;22.73;51.20;101407.84;5032573;28;20213;-74
2022/06/22 08:15:47;;;;;;;6.80;3.07;;;;;;;22.77;50.83;101407.75;5032541;28;20285;-74
2022/06/22 08:18:14;;;;;;;7.73;3.07;;;;;;;22.93;50.43;101419.59;5032015;28;20257;-74
2022/06/22 08:20:42;;;;;;;5.77;3.30;;;;;;;23.10;49.60;101419.22;5031624;28;20247;-74
2022/06/22 08:23:15;;;;;;;7.00;3.00;;;;;;;23.09;49.27;101420.97;5031279;28;20195;-74
2022/06/22 08:25:44;;;;;;;5.97;3.27;;;;;;;23.05;48.83;101419.31;5014503;28;20206;-74
2022/06/22 08:28:16;;;;;;;7.33;3.40;;;;;;;22.86;49.51;101417.16;5031744;28;20186;-75
2022/06/22 08:30:42;;;;;;;5.77;3.00;;;;;;;23.19;48.95;101411.19;5031651;28;20676;-74
2022/06/22 08:33:13;;;;;;;5.60;3.07;;;;;;;23.46;48.48;101408.81;5031807;28;20186;-74
2022/06/22 08:36:14;;;;;;;5.90;3.27;;;;;;;23.56;48.43;101405.06;5031296;28;20197;-74
2022/06/22 08:38:54;;;;;;;8.93;3.57;;;;;;;23.40;47.55;101418.56;4983857;28;20260;-74
2022/06/22 08:41:33;;;;;;;4.70;2.93;;;;;;;23.51;47.47;101416.53;5031519;28;20224;-75
2022/06/22 08:44:07;;;;;;;4.73;2.57;;;;;;;23.67;47.30;101408.25;5014271;28;20194;-75
2022/06/22 08:46:48;;;;;;;5.57;2.97;;;;;;;23.72;46.58;101411.66;5030205;28;20195;-75
2022/06/22 08:49:19;;;;;;;6.10;2.90;;;;;;;23.62;46.38;101414.53;5031882;28;20251;-75
2022/06/22 08:51:46;;;;;;;6.57;2.60;;;;;;;23.71;46.60;101406.44;5031537;28;20217;-74
2022/06/22 08:54:14;;;;;;;8.00;2.93;;;;;;;23.68;46.16;101416.97;5051529;28;20178;-74
2022/06/22 08:57:03;;;;;;;5.90;2.93;;;;;;;23.90;46.09;101426.03;5051284;28;20193;-75
2022/06/22 08:59:46;;;;;;;6.63;2.70;;;;;;;24.09;45.40;101422.91;5051486;28;20309;-74
2022/06/22 09:02:18;;;;;;;5.40;2.77;;;;;;;24.15;44.66;101425.38;5042412;28;20597;-75
2022/06/22 09:04:59;;;;;;;6.20;2.80;;;;;;;24.24;45.49;101422.50;5031928;28;20186;-74
2022/06/22 09:07:27;;;;;;;6.45;3.38;;;;;;;24.23;45.02;101415.56;5031720;28;20525;-74
2022/06/22 09:10:16;;;;;;;5.00;2.83;;;;;;;24.43;45.38;101422.84;5031349;28;20516;-74
2022/06/22 09:13:08;;;;;;;6.43;3.00;;;;;;;24.60;44.26;101421.50;4993940;28;20222;-74
2022/06/22 09:15:59;;;;;;;9.18;3.50;;;;;;;25.02;46.06;101421.97;5030665;28;20243;-74
2022/06/22 09:18:24;;;;;;;3.40;2.40;;;;;;;25.14;44.71;101421.63;5031655;28;20278;-74
2022/06/22 09:21:03;;;;;;;7.30;3.10;;;;;;;25.39;43.54;101428.69;5031007;28;20281;-75
2022/06/22 09:23:38;;;;;;;5.25;2.75;;;;;;;25.59;43.52;101430.66;5031577;28;20174;-75
2022/06/22 09:26:32;;;;;;;10.02;3.10;;;;;;;25.48;42.67;101428.41;5029878;28;20268;-74
2022/06/22 09:29:01;;;;;;;6.30;3.10;;;;;;;25.66;43.08;101426.94;5031551;28;20249;-74
2022/06/22 09:31:45;;;;;;;7.82;3.60;;;;;;;25.94;43.46;101427.75;5030578;28;20217;-75
2022/06/22 09:34:25;;;;;;;12.00;3.25;;;;;;;25.50;41.92;101423.13;5030993;28;20275;-75
2022/06/22 09:37:26;;;;;;;7.10;3.17;;;;;;;25.41;43.09;101428.66;5030853;28;20190;-75
2022/06/22 09:40:06;;;;;;;7.25;2.95;;;;;;;25.58;43.11;101431.56;5013323;28;20206;-75
2022/06/22 09:42:54;;;;;;;7.95;3.38;;;;;;;25.70;42.82;101425.94;4997360;28;20210;-78
2022/06/22 09:46:01;;;;;;;4.78;3.00;;;;;;;25.84;41.77;101424.53;5014804;28;20205;-76
2022/06/22 09:49:01;;;;;;;6.68;2.90;;;;;;;26.08;41.80;101420.25;5031174;28;20197;-76
2022/06/22 09:51:33;;;;;;;6.88;2.90;;;;;;;26.31;42.36;101426.44;4999414;28;20313;-77
2022/06/22 09:57:29;;;;;;;5.78;3.13;;;;;;;26.16;41.85;101428.75;5030274;28;20205;-78
2022/06/22 10:00:13;;;;;;;5.72;3.22;;;;;;;26.45;40.96;101424.16;5022482;28;20211;-76
2022/06/22 10:02:57;;;;;;;9.23;4.05;;;;;;;26.00;40.96;101427.53;5031034;28;20851;-76
2022/06/22 10:05:38;;;;;;;7.90;3.70;;;;;;;26.25;41.65;101424.00;5030435;28;20282;-77
2022/06/22 10:08:12;;;;;;;7.10;3.17;;;;;;;26.68;41.41;101428.59;5023869;28;20186;-76
2022/06/22 10:11:11;;;;;;;7.10;3.03;;;;;;;26.90;40.42;101430.34;5013469;28;20186;-78
2022/06/22 10:13:39;;;;;;;5.78;2.58;;;;;;;27.05;38.82;101424.50;4980378;28;20289;-76
2022/06/22 10:16:04;;;;;;;5.68;2.90;;;;;;;27.01;41.34;101428.19;5013244;28;20225;-75
2022/06/22 10:18:41;;;;;;;6.07;2.90;;;;;;;27.09;38.86;101425.25;5030864;28;20234;-77
2022/06/22 10:21:12;;;;;;;5.72;2.85;;;;;;;27.00;39.25;101417.72;5030036;28;20661;-77
2022/06/22 10:24:02;;;;;;;5.72;3.25;;;;;;;27.13;39.52;101424.22;5030455;28;20192;-77
2022/06/22 10:26:34;;;;;;;9.88;3.53;;;;;;;27.41;39.92;101422.22;5030285;28;20266;-76
2022/06/22 10:29:32;;;;;;;5.82;3.00;;;;;;;26.21;40.68;101421.56;5012420;28;20237;-76
2022/06/22 10:32:15;;;;;;;4.43;3.22;;;;;;;26.33;41.69;101429.00;5030696;28;20680;-77
2022/06/22 10:34:53;;;;;;;6.85;3.30;;;;;;;26.66;41.19;101422.56;5030479;28;20182;-74
2022/06/22 10:37:47;;;;;;;6.25;2.90;;;;;;;27.00;40.48;101425.59;5029936;28;20544;-74
2022/06/22 10:45:08;;;;;;;4.00;2.95;;;;;;;27.05;40.25;101426.28;5029475;28;21386;-75
2022/06/22 10:46:01;;;;;;;5.68;3.30;;;;;;;26.61;39.57;101429.75;5030112;28;20208;-74
2022/06/22 10:48:40;;;;;;;5.32;3.17;;;;;;;27.01;38.36;101416.78;5012280;28;20880;-74
2022/06/22 10:51:45;;;;;;;6.60;3.03;;;;;;;27.04;38.11;101419.31;5029164;28;20210;-75
2022/06/22 10:54:34;;;;;;;8.57;3.42;;;;;;;27.06;40.35;101422.72;5029883;28;20185;-75
2022/06/22 10:57:40;;;;;;;7.22;3.60;;;;;;;27.16;39.00;101424.06;5029786;28;20629;-76
2022/06/22 11:00:14;;;;;;;6.03;3.30;;;;;;;27.00;38.28;101421.22;5009393;28;20273;-76
2022/06/22 11:03:15;;;;;;;6.32;3.80;;;;;;;26.93;37.78;101414.47;5010030;28;20208;-76
2022/06/22 11:05:53;;;;;;;6.10;3.38;;;;;;;27.14;37.64;101410.13;5009651;28;20660;-76
2022/06/22 11:08:25;;;;;;;3.97;3.17;;;;;;;27.50;36.98;101406.91;5009911;28;20552;-77
2022/06/22 11:11:29;;;;;;;5.85;2.85;;;;;;;27.52;36.96;101405.06;5009660;28;20194;-76
2022/06/22 11:14:26;;;;;;;5.78;3.58;;;;;;;27.52;36.83;101401.56;5010043;28;20183;-76
2022/06/22 11:17:06;;;;;;;7.88;4.20;;;;;;;27.33;36.43;101400.63;5009485;28;20588;-76
2022/06/22 11:20:04;;;;;;;6.90;3.50;;;;;;;27.47;37.14;101401.78;5010551;28;20219;-74
2022/06/22 11:22:35;;;;;;;3.85;3.25;;;;;;;27.48;36.21;101399.97;4984592;28;20250;-74
2022/06/22 11:31:24;;;;;;;5.88;3.67;;;;;;;27.37;36.72;101400.44;5024602;28;20277;-74
2022/06/22 11:34:04;;;;;;;6.10;4.30;;;;;;;27.02;36.10;101387.78;5026462;28;20298;-74
2022/06/22 11:37:07;;;;;;;5.43;3.50;;;;;;;27.45;38.37;101390.44;4995043;28;20286;-74
2022/06/22 11:40:02;;;;;;;6.15;4.22;;;;;;;27.62;36.65;101395.88;4965710;28;20220;-74
2022/06/22 11:42:42;;;;;;;7.10;4.00;;;;;;;27.66;36.72;101408.00;4981400;28;20227;-75
2022/06/22 11:48:00;;;;;;;11.18;4.20;;;;;;;27.83;37.18;101399.41;5028053;28;20849;-75
2022/06/22 11:50:53;;;;;;;5.32;3.45;;;;;;;27.98;36.82;101394.34;5028581;28;20658;-74
2022/06/22 11:53:55;;;;;;;6.60;3.72;;;;;;;28.16;34.56;101384.78;5009674;28;20186;-75
2022/06/22 11:56:53;;;;;;;3.67;3.10;;;;;;;28.16;35.45;101382.13;5025706;28;20733;-74
2022/06/22 11:59:40;;;;;;;5.97;3.40;;;;;;;28.24;34.05;101385.28;5025731;28;20596;-75
2022/06/22 12:02:24;;;;;;;6.93;3.13;;;;;;;28.18;34.00;101380.31;5023564;28;20243;-74
2022/06/22 12:05:11;;;;;;;7.35;3.03;;;;;;;28.35;35.40;101375.13;5011705;28;20567;-74
2022/06/22 12:07:54;;;;;;;5.32;3.47;;;;;;;28.27;34.85;101370.19;5028476;28;20192;-75
2022/06/22 12:10:45;;;;;;;5.00;3.58;;;;;;;28.42;35.03;101371.31;5028536;28;20179;-74
2022/06/22 12:17:01;;;;;;;5.72;3.65;;;;;;;28.41;35.42;101372.25;5029032;28;20233;-74
2022/06/22 12:19:45;;;;;;;7.15;4.72;;;;;;;27.43;35.70;101375.63;5028533;28;20260;-74
2022/06/22 12:22:33;;;;;;;7.80;3.88;;;;;;;28.18;36.32;101367.13;5032577;28;20582;-75
2022/06/22 12:25:19;;;;;;;8.75;3.58;;;;;;;28.37;34.21;101362.75;5032116;28;20596;-75
2022/06/22 12:28:04;;;;;;;4.78;3.30;;;;;;;28.12;34.08;101362.13;5032657;28;20240;-74
2022/06/22 12:30:43;;;;;;;5.80;3.83;;;;;;;27.95;34.53;101359.38;5031960;28;20624;-75
2022/06/22 12:34:00;;;;;;;4.50;3.25;;;;;;;28.06;34.85;101352.72;5032493;28;20200;-75
2022/06/22 12:36:37;;;;;;;6.50;3.17;;;;;;;28.42;34.58;101348.44;5006328;28;20285;-74
2022/06/22 12:39:10;;;;;;;4.22;2.88;;;;;;;28.52;35.75;101347.13;5032603;28;20237;-74
2022/06/22 12:41:41;;;;;;;11.63;3.30;;;;;;;28.77;33.69;101355.56;5031879;28;20242;-74
2022/06/22 12:44:19;;;;;;;6.72;3.75;;;;;;;28.73;34.46;101355.81;5032028;28;20211;-75
2022/06/22 12:46:53;;;;;;;5.75;3.33;;;;;;;28.70;34.71;101340.13;5031784;28;20304;-74